<?xml version="1.0" encoding="UTF-8" standalone="no" ?>
<gpx xmlns="http://www.topografix.com/GPX/1/1" xmlns:xsi="http://www.w3.org/2001/XMLSchema-instance" xsi:schemaLocation="http://www.topografix.com/GPX/1/1 http://www.topografix.com/GPX/1/1/gpx.xsd" version="1.1" creator="VisuGPX - https://www.visugpx.com">
  <metadata>
    <name>Rando Fontainebleau- Bois le Roi</name>
    <desc><![CDATA[Rando facile au départ de la gare de Fontainebleau-Avon -
20 km en forêt et le long de la Seine - 
Retour Paris à la gare de Bois-Le Roi.
A retrouver aussi sur : 
[url]http://trekkingzone.wordpress.com[/url]]]></desc>
  </metadata>
  <trk>
    <name><![CDATA[9 juil. 2017 à 10:11:53]]></name>
    <cmt><![CDATA[9 juil. 2017 à 10:11:53]]></cmt>
    <trkseg>
      <trkpt lat="48.41604" lon="2.72649">
        <ele>75</ele>
        <time>2017-07-09T08:11:57Z</time>
      </trkpt>
      <trkpt lat="48.41619" lon="2.72623">
        <ele>74</ele>
        <time>2017-07-09T08:13:27Z</time>
      </trkpt>
      <trkpt lat="48.41642" lon="2.72624">
        <ele>77</ele>
        <time>2017-07-09T08:13:50Z</time>
      </trkpt>
      <trkpt lat="48.41654" lon="2.72593">
        <ele>78</ele>
        <time>2017-07-09T08:14:16Z</time>
      </trkpt>
      <trkpt lat="48.4166" lon="2.7256">
        <ele>78</ele>
        <time>2017-07-09T08:14:34Z</time>
      </trkpt>
      <trkpt lat="48.4168" lon="2.72577">
        <ele>78</ele>
        <time>2017-07-09T08:15:06Z</time>
      </trkpt>
      <trkpt lat="48.41695" lon="2.72602">
        <ele>79</ele>
        <time>2017-07-09T08:15:39Z</time>
      </trkpt>
      <trkpt lat="48.4172" lon="2.72659">
        <ele>81</ele>
        <time>2017-07-09T08:16:27Z</time>
      </trkpt>
      <trkpt lat="48.41741" lon="2.72674">
        <ele>85</ele>
        <time>2017-07-09T08:17:37Z</time>
      </trkpt>
      <trkpt lat="48.41763" lon="2.72683">
        <ele>85</ele>
        <time>2017-07-09T08:18:05Z</time>
      </trkpt>
      <trkpt lat="48.41808" lon="2.72697">
        <ele>86</ele>
        <time>2017-07-09T08:18:38Z</time>
      </trkpt>
      <trkpt lat="48.41848" lon="2.72727">
        <ele>87</ele>
        <time>2017-07-09T08:19:25Z</time>
      </trkpt>
      <trkpt lat="48.4189" lon="2.72754">
        <ele>88</ele>
        <time>2017-07-09T08:20:06Z</time>
      </trkpt>
      <trkpt lat="48.41931" lon="2.72785">
        <ele>89</ele>
        <time>2017-07-09T08:20:44Z</time>
      </trkpt>
      <trkpt lat="48.41969" lon="2.72824">
        <ele>88</ele>
        <time>2017-07-09T08:21:25Z</time>
      </trkpt>
      <trkpt lat="48.41987" lon="2.72848">
        <ele>88</ele>
        <time>2017-07-09T08:21:45Z</time>
      </trkpt>
      <trkpt lat="48.42024" lon="2.72885">
        <ele>86</ele>
        <time>2017-07-09T08:22:20Z</time>
      </trkpt>
      <trkpt lat="48.42059" lon="2.72929">
        <ele>85</ele>
        <time>2017-07-09T08:22:57Z</time>
      </trkpt>
      <trkpt lat="48.42097" lon="2.7297">
        <ele>84</ele>
        <time>2017-07-09T08:23:36Z</time>
      </trkpt>
      <trkpt lat="48.42134" lon="2.73014">
        <ele>83</ele>
        <time>2017-07-09T08:24:16Z</time>
      </trkpt>
      <trkpt lat="48.4217" lon="2.73056">
        <ele>82</ele>
        <time>2017-07-09T08:24:56Z</time>
      </trkpt>
      <trkpt lat="48.42208" lon="2.73096">
        <ele>82</ele>
        <time>2017-07-09T08:25:35Z</time>
      </trkpt>
      <trkpt lat="48.42247" lon="2.73134">
        <ele>82</ele>
        <time>2017-07-09T08:26:14Z</time>
      </trkpt>
      <trkpt lat="48.42287" lon="2.73168">
        <ele>82</ele>
        <time>2017-07-09T08:26:52Z</time>
      </trkpt>
      <trkpt lat="48.42326" lon="2.73207">
        <ele>81</ele>
        <time>2017-07-09T08:27:34Z</time>
      </trkpt>
      <trkpt lat="48.42364" lon="2.73247">
        <ele>80</ele>
        <time>2017-07-09T08:28:11Z</time>
      </trkpt>
      <trkpt lat="48.42402" lon="2.73288">
        <ele>80</ele>
        <time>2017-07-09T08:28:50Z</time>
      </trkpt>
      <trkpt lat="48.42418" lon="2.73302">
        <ele>78</ele>
        <time>2017-07-09T08:34:02Z</time>
      </trkpt>
      <trkpt lat="48.42405" lon="2.73343">
        <ele>75</ele>
        <time>2017-07-09T08:37:27Z</time>
      </trkpt>
      <trkpt lat="48.42395" lon="2.73374">
        <ele>74</ele>
        <time>2017-07-09T08:38:03Z</time>
      </trkpt>
      <trkpt lat="48.42386" lon="2.73406">
        <ele>73</ele>
        <time>2017-07-09T08:38:37Z</time>
      </trkpt>
      <trkpt lat="48.42379" lon="2.73439">
        <ele>73</ele>
        <time>2017-07-09T08:39:21Z</time>
      </trkpt>
      <trkpt lat="48.42394" lon="2.73466">
        <ele>73</ele>
        <time>2017-07-09T08:39:48Z</time>
      </trkpt>
      <trkpt lat="48.42412" lon="2.73491">
        <ele>73</ele>
        <time>2017-07-09T08:40:22Z</time>
      </trkpt>
      <trkpt lat="48.42426" lon="2.73521">
        <ele>74</ele>
        <time>2017-07-09T08:40:37Z</time>
      </trkpt>
      <trkpt lat="48.42465" lon="2.73561">
        <ele>75</ele>
        <time>2017-07-09T08:41:19Z</time>
      </trkpt>
      <trkpt lat="48.42485" lon="2.73581">
        <ele>75</ele>
        <time>2017-07-09T08:41:40Z</time>
      </trkpt>
      <trkpt lat="48.42514" lon="2.73636">
        <ele>76</ele>
        <time>2017-07-09T08:42:21Z</time>
      </trkpt>
      <trkpt lat="48.42549" lon="2.73682">
        <ele>76</ele>
        <time>2017-07-09T08:42:56Z</time>
      </trkpt>
      <trkpt lat="48.4256" lon="2.73712">
        <ele>75</ele>
        <time>2017-07-09T08:43:21Z</time>
      </trkpt>
      <trkpt lat="48.42575" lon="2.73736">
        <ele>75</ele>
        <time>2017-07-09T08:43:39Z</time>
      </trkpt>
      <trkpt lat="48.42593" lon="2.73799">
        <ele>73</ele>
        <time>2017-07-09T08:44:18Z</time>
      </trkpt>
      <trkpt lat="48.42605" lon="2.73866">
        <ele>72</ele>
        <time>2017-07-09T08:44:57Z</time>
      </trkpt>
      <trkpt lat="48.42617" lon="2.73934">
        <ele>72</ele>
        <time>2017-07-09T08:45:33Z</time>
      </trkpt>
      <trkpt lat="48.42622" lon="2.74003">
        <ele>72</ele>
        <time>2017-07-09T08:46:13Z</time>
      </trkpt>
      <trkpt lat="48.42633" lon="2.74069">
        <ele>72</ele>
        <time>2017-07-09T08:46:52Z</time>
      </trkpt>
      <trkpt lat="48.42644" lon="2.741">
        <ele>72</ele>
        <time>2017-07-09T08:47:14Z</time>
      </trkpt>
      <trkpt lat="48.42677" lon="2.74149">
        <ele>72</ele>
        <time>2017-07-09T08:47:53Z</time>
      </trkpt>
      <trkpt lat="48.42694" lon="2.74172">
        <ele>72</ele>
        <time>2017-07-09T08:48:14Z</time>
      </trkpt>
      <trkpt lat="48.42739" lon="2.74187">
        <ele>72</ele>
        <time>2017-07-09T08:48:56Z</time>
      </trkpt>
      <trkpt lat="48.42787" lon="2.74187">
        <ele>72</ele>
        <time>2017-07-09T08:49:38Z</time>
      </trkpt>
      <trkpt lat="48.42832" lon="2.74203">
        <ele>72</ele>
        <time>2017-07-09T08:50:17Z</time>
      </trkpt>
      <trkpt lat="48.42876" lon="2.74219">
        <ele>71</ele>
        <time>2017-07-09T08:50:57Z</time>
      </trkpt>
      <trkpt lat="48.42921" lon="2.7422">
        <ele>71</ele>
        <time>2017-07-09T08:51:36Z</time>
      </trkpt>
      <trkpt lat="48.42968" lon="2.74216">
        <ele>71</ele>
        <time>2017-07-09T08:52:10Z</time>
      </trkpt>
      <trkpt lat="48.43014" lon="2.74214">
        <ele>71</ele>
        <time>2017-07-09T08:52:56Z</time>
      </trkpt>
      <trkpt lat="48.43033" lon="2.74195">
        <ele>71</ele>
        <time>2017-07-09T08:53:14Z</time>
      </trkpt>
      <trkpt lat="48.43056" lon="2.74198">
        <ele>71</ele>
        <time>2017-07-09T08:53:31Z</time>
      </trkpt>
      <trkpt lat="48.43032" lon="2.74207">
        <ele>70</ele>
        <time>2017-07-09T08:54:36Z</time>
      </trkpt>
      <trkpt lat="48.43016" lon="2.74183">
        <ele>74</ele>
        <time>2017-07-09T08:55:21Z</time>
      </trkpt>
      <trkpt lat="48.43029" lon="2.74118">
        <ele>76</ele>
        <time>2017-07-09T08:56:09Z</time>
      </trkpt>
      <trkpt lat="48.43039" lon="2.74087">
        <ele>78</ele>
        <time>2017-07-09T08:56:31Z</time>
      </trkpt>
      <trkpt lat="48.43049" lon="2.74019">
        <ele>81</ele>
        <time>2017-07-09T08:57:11Z</time>
      </trkpt>
      <trkpt lat="48.43055" lon="2.73984">
        <ele>82</ele>
        <time>2017-07-09T08:57:31Z</time>
      </trkpt>
      <trkpt lat="48.43071" lon="2.73918">
        <ele>84</ele>
        <time>2017-07-09T08:58:12Z</time>
      </trkpt>
      <trkpt lat="48.43084" lon="2.7389">
        <ele>89</ele>
        <time>2017-07-09T08:59:15Z</time>
      </trkpt>
      <trkpt lat="48.43127" lon="2.73911">
        <ele>88</ele>
        <time>2017-07-09T08:59:56Z</time>
      </trkpt>
      <trkpt lat="48.4317" lon="2.73936">
        <ele>87</ele>
        <time>2017-07-09T09:00:36Z</time>
      </trkpt>
      <trkpt lat="48.43214" lon="2.73959">
        <ele>86</ele>
        <time>2017-07-09T09:01:08Z</time>
      </trkpt>
      <trkpt lat="48.43234" lon="2.73976">
        <ele>85</ele>
        <time>2017-07-09T09:01:36Z</time>
      </trkpt>
      <trkpt lat="48.43256" lon="2.73985">
        <ele>85</ele>
        <time>2017-07-09T09:01:56Z</time>
      </trkpt>
      <trkpt lat="48.43277" lon="2.74002">
        <ele>85</ele>
        <time>2017-07-09T09:02:16Z</time>
      </trkpt>
      <trkpt lat="48.43299" lon="2.74014">
        <ele>85</ele>
        <time>2017-07-09T09:02:39Z</time>
      </trkpt>
      <trkpt lat="48.4332" lon="2.74031">
        <ele>85</ele>
        <time>2017-07-09T09:03:13Z</time>
      </trkpt>
      <trkpt lat="48.43339" lon="2.74012">
        <ele>85</ele>
        <time>2017-07-09T09:03:55Z</time>
      </trkpt>
      <trkpt lat="48.43362" lon="2.74009">
        <ele>86</ele>
        <time>2017-07-09T09:04:20Z</time>
      </trkpt>
      <trkpt lat="48.43372" lon="2.74041">
        <ele>86</ele>
        <time>2017-07-09T09:04:58Z</time>
      </trkpt>
      <trkpt lat="48.4339" lon="2.74014">
        <ele>86</ele>
        <time>2017-07-09T09:05:32Z</time>
      </trkpt>
      <trkpt lat="48.43411" lon="2.74">
        <ele>86</ele>
        <time>2017-07-09T09:05:59Z</time>
      </trkpt>
      <trkpt lat="48.43426" lon="2.73975">
        <ele>86</ele>
        <time>2017-07-09T09:06:23Z</time>
      </trkpt>
      <trkpt lat="48.43449" lon="2.73972">
        <ele>86</ele>
        <time>2017-07-09T09:06:57Z</time>
      </trkpt>
      <trkpt lat="48.43494" lon="2.73983">
        <ele>86</ele>
        <time>2017-07-09T09:07:44Z</time>
      </trkpt>
      <trkpt lat="48.43517" lon="2.73987">
        <ele>85</ele>
        <time>2017-07-09T09:07:59Z</time>
      </trkpt>
      <trkpt lat="48.43538" lon="2.74002">
        <ele>85</ele>
        <time>2017-07-09T09:08:19Z</time>
      </trkpt>
      <trkpt lat="48.43582" lon="2.74017">
        <ele>85</ele>
        <time>2017-07-09T09:08:58Z</time>
      </trkpt>
      <trkpt lat="48.43628" lon="2.7403">
        <ele>85</ele>
        <time>2017-07-09T09:09:40Z</time>
      </trkpt>
      <trkpt lat="48.43674" lon="2.74041">
        <ele>86</ele>
        <time>2017-07-09T09:10:22Z</time>
      </trkpt>
      <trkpt lat="48.43695" lon="2.74055">
        <ele>86</ele>
        <time>2017-07-09T09:10:43Z</time>
      </trkpt>
      <trkpt lat="48.43741" lon="2.74068">
        <ele>86</ele>
        <time>2017-07-09T09:11:25Z</time>
      </trkpt>
      <trkpt lat="48.43786" lon="2.74078">
        <ele>86</ele>
        <time>2017-07-09T09:12:08Z</time>
      </trkpt>
      <trkpt lat="48.4381" lon="2.74091">
        <ele>86</ele>
        <time>2017-07-09T09:12:19Z</time>
      </trkpt>
      <trkpt lat="48.43855" lon="2.74106">
        <ele>86</ele>
        <time>2017-07-09T09:13:07Z</time>
      </trkpt>
      <trkpt lat="48.43901" lon="2.74119">
        <ele>87</ele>
        <time>2017-07-09T09:13:46Z</time>
      </trkpt>
      <trkpt lat="48.43944" lon="2.74154">
        <ele>87</ele>
        <time>2017-07-09T09:14:24Z</time>
      </trkpt>
      <trkpt lat="48.43991" lon="2.74171">
        <ele>87</ele>
        <time>2017-07-09T09:15:04Z</time>
      </trkpt>
      <trkpt lat="48.44038" lon="2.74182">
        <ele>87</ele>
        <time>2017-07-09T09:15:40Z</time>
      </trkpt>
      <trkpt lat="48.44083" lon="2.74197">
        <ele>87</ele>
        <time>2017-07-09T09:16:19Z</time>
      </trkpt>
      <trkpt lat="48.44105" lon="2.74198">
        <ele>87</ele>
        <time>2017-07-09T09:16:33Z</time>
      </trkpt>
      <trkpt lat="48.44151" lon="2.74215">
        <ele>87</ele>
        <time>2017-07-09T09:17:16Z</time>
      </trkpt>
      <trkpt lat="48.44196" lon="2.74235">
        <ele>87</ele>
        <time>2017-07-09T09:17:50Z</time>
      </trkpt>
      <trkpt lat="48.44216" lon="2.74254">
        <ele>87</ele>
        <time>2017-07-09T09:18:10Z</time>
      </trkpt>
      <trkpt lat="48.44239" lon="2.74255">
        <ele>87</ele>
        <time>2017-07-09T09:18:30Z</time>
      </trkpt>
      <trkpt lat="48.44284" lon="2.74275">
        <ele>88</ele>
        <time>2017-07-09T09:19:11Z</time>
      </trkpt>
      <trkpt lat="48.4433" lon="2.74288">
        <ele>88</ele>
        <time>2017-07-09T09:19:50Z</time>
      </trkpt>
      <trkpt lat="48.44354" lon="2.74285">
        <ele>88</ele>
        <time>2017-07-09T09:20:10Z</time>
      </trkpt>
      <trkpt lat="48.44392" lon="2.74248">
        <ele>88</ele>
        <time>2017-07-09T09:20:55Z</time>
      </trkpt>
      <trkpt lat="48.44411" lon="2.74225">
        <ele>88</ele>
        <time>2017-07-09T09:21:17Z</time>
      </trkpt>
      <trkpt lat="48.44432" lon="2.7421">
        <ele>88</ele>
        <time>2017-07-09T09:21:30Z</time>
      </trkpt>
      <trkpt lat="48.4445" lon="2.74235">
        <ele>88</ele>
        <time>2017-07-09T09:23:58Z</time>
      </trkpt>
      <trkpt lat="48.44461" lon="2.74265">
        <ele>88</ele>
        <time>2017-07-09T09:24:32Z</time>
      </trkpt>
      <trkpt lat="48.44474" lon="2.74294">
        <ele>88</ele>
        <time>2017-07-09T09:24:50Z</time>
      </trkpt>
      <trkpt lat="48.44495" lon="2.74307">
        <ele>88</ele>
        <time>2017-07-09T09:25:12Z</time>
      </trkpt>
      <trkpt lat="48.44517" lon="2.743">
        <ele>88</ele>
        <time>2017-07-09T09:25:41Z</time>
      </trkpt>
      <trkpt lat="48.44527" lon="2.74268">
        <ele>88</ele>
        <time>2017-07-09T09:26:24Z</time>
      </trkpt>
      <trkpt lat="48.44551" lon="2.74211">
        <ele>88</ele>
        <time>2017-07-09T09:27:11Z</time>
      </trkpt>
      <trkpt lat="48.44567" lon="2.74185">
        <ele>88</ele>
        <time>2017-07-09T09:27:34Z</time>
      </trkpt>
      <trkpt lat="48.44587" lon="2.74163">
        <ele>88</ele>
        <time>2017-07-09T09:27:51Z</time>
      </trkpt>
      <trkpt lat="48.44608" lon="2.7415">
        <ele>89</ele>
        <time>2017-07-09T09:28:10Z</time>
      </trkpt>
      <trkpt lat="48.44654" lon="2.74147">
        <ele>89</ele>
        <time>2017-07-09T09:28:52Z</time>
      </trkpt>
      <trkpt lat="48.44677" lon="2.74145">
        <ele>89</ele>
        <time>2017-07-09T09:29:12Z</time>
      </trkpt>
      <trkpt lat="48.44719" lon="2.74176">
        <ele>89</ele>
        <time>2017-07-09T09:29:54Z</time>
      </trkpt>
      <trkpt lat="48.44736" lon="2.74198">
        <ele>89</ele>
        <time>2017-07-09T09:30:20Z</time>
      </trkpt>
      <trkpt lat="48.44754" lon="2.7422">
        <ele>89</ele>
        <time>2017-07-09T09:30:51Z</time>
      </trkpt>
      <trkpt lat="48.44799" lon="2.74225">
        <ele>89</ele>
        <time>2017-07-09T09:31:33Z</time>
      </trkpt>
      <trkpt lat="48.44821" lon="2.74236">
        <ele>90</ele>
        <time>2017-07-09T09:31:50Z</time>
      </trkpt>
      <trkpt lat="48.44844" lon="2.74232">
        <ele>90</ele>
        <time>2017-07-09T09:32:13Z</time>
      </trkpt>
      <trkpt lat="48.44866" lon="2.7422">
        <ele>90</ele>
        <time>2017-07-09T09:32:30Z</time>
      </trkpt>
      <trkpt lat="48.44873" lon="2.74253">
        <ele>90</ele>
        <time>2017-07-09T09:33:17Z</time>
      </trkpt>
      <trkpt lat="48.44884" lon="2.74284">
        <ele>91</ele>
        <time>2017-07-09T09:33:41Z</time>
      </trkpt>
      <trkpt lat="48.44876" lon="2.74318">
        <ele>91</ele>
        <time>2017-07-09T09:34:00Z</time>
      </trkpt>
      <trkpt lat="48.44879" lon="2.74352">
        <ele>91</ele>
        <time>2017-07-09T09:34:20Z</time>
      </trkpt>
      <trkpt lat="48.44874" lon="2.7438">
        <ele>92</ele>
        <time>2017-07-09T09:35:45Z</time>
      </trkpt>
      <trkpt lat="48.44874" lon="2.7442">
        <ele>91</ele>
        <time>2017-07-09T09:36:14Z</time>
      </trkpt>
      <trkpt lat="48.44866" lon="2.74452">
        <ele>91</ele>
        <time>2017-07-09T09:36:34Z</time>
      </trkpt>
      <trkpt lat="48.44869" lon="2.74486">
        <ele>91</ele>
        <time>2017-07-09T09:37:08Z</time>
      </trkpt>
      <trkpt lat="48.4488" lon="2.74552">
        <ele>91</ele>
        <time>2017-07-09T09:37:42Z</time>
      </trkpt>
      <trkpt lat="48.44888" lon="2.74621">
        <ele>91</ele>
        <time>2017-07-09T09:38:25Z</time>
      </trkpt>
      <trkpt lat="48.44899" lon="2.74689">
        <ele>90</ele>
        <time>2017-07-09T09:39:04Z</time>
      </trkpt>
      <trkpt lat="48.44906" lon="2.74724">
        <ele>89</ele>
        <time>2017-07-09T09:39:24Z</time>
      </trkpt>
      <trkpt lat="48.44925" lon="2.74785">
        <ele>89</ele>
        <time>2017-07-09T09:39:57Z</time>
      </trkpt>
      <trkpt lat="48.44925" lon="2.74821">
        <ele>88</ele>
        <time>2017-07-09T09:40:17Z</time>
      </trkpt>
      <trkpt lat="48.44912" lon="2.74888">
        <ele>87</ele>
        <time>2017-07-09T09:40:54Z</time>
      </trkpt>
      <trkpt lat="48.44906" lon="2.74921">
        <ele>86</ele>
        <time>2017-07-09T09:41:12Z</time>
      </trkpt>
      <trkpt lat="48.44903" lon="2.74954">
        <ele>86</ele>
        <time>2017-07-09T09:42:12Z</time>
      </trkpt>
      <trkpt lat="48.44921" lon="2.74977">
        <ele>85</ele>
        <time>2017-07-09T09:42:46Z</time>
      </trkpt>
      <trkpt lat="48.44943" lon="2.74974">
        <ele>85</ele>
        <time>2017-07-09T09:43:13Z</time>
      </trkpt>
      <trkpt lat="48.44966" lon="2.74981">
        <ele>84</ele>
        <time>2017-07-09T09:43:30Z</time>
      </trkpt>
      <trkpt lat="48.44991" lon="2.74986">
        <ele>84</ele>
        <time>2017-07-09T09:43:54Z</time>
      </trkpt>
      <trkpt lat="48.4501" lon="2.75004">
        <ele>84</ele>
        <time>2017-07-09T09:44:15Z</time>
      </trkpt>
      <trkpt lat="48.45033" lon="2.75019">
        <ele>83</ele>
        <time>2017-07-09T09:44:36Z</time>
      </trkpt>
      <trkpt lat="48.45073" lon="2.75055">
        <ele>83</ele>
        <time>2017-07-09T09:45:09Z</time>
      </trkpt>
      <trkpt lat="48.45077" lon="2.7509">
        <ele>83</ele>
        <time>2017-07-09T09:45:29Z</time>
      </trkpt>
      <trkpt lat="48.45098" lon="2.75105">
        <ele>82</ele>
        <time>2017-07-09T09:45:50Z</time>
      </trkpt>
      <trkpt lat="48.45111" lon="2.75134">
        <ele>82</ele>
        <time>2017-07-09T09:46:11Z</time>
      </trkpt>
      <trkpt lat="48.45147" lon="2.75177">
        <ele>81</ele>
        <time>2017-07-09T09:46:51Z</time>
      </trkpt>
      <trkpt lat="48.45165" lon="2.752">
        <ele>80</ele>
        <time>2017-07-09T09:47:11Z</time>
      </trkpt>
      <trkpt lat="48.45186" lon="2.75215">
        <ele>80</ele>
        <time>2017-07-09T09:47:34Z</time>
      </trkpt>
      <trkpt lat="48.45208" lon="2.7522">
        <ele>80</ele>
        <time>2017-07-09T09:48:01Z</time>
      </trkpt>
      <trkpt lat="48.45218" lon="2.75188">
        <ele>80</ele>
        <time>2017-07-09T09:48:30Z</time>
      </trkpt>
      <trkpt lat="48.4521" lon="2.75175">
        <ele>81</ele>
        <time>2017-07-09T09:50:31Z</time>
      </trkpt>
      <trkpt lat="48.45222" lon="2.75145">
        <ele>81</ele>
        <time>2017-07-09T09:55:49Z</time>
      </trkpt>
      <trkpt lat="48.45245" lon="2.75145">
        <ele>81</ele>
        <time>2017-07-09T09:56:28Z</time>
      </trkpt>
      <trkpt lat="48.45265" lon="2.75163">
        <ele>80</ele>
        <time>2017-07-09T09:56:59Z</time>
      </trkpt>
      <trkpt lat="48.45285" lon="2.75177">
        <ele>79</ele>
        <time>2017-07-09T09:57:13Z</time>
      </trkpt>
      <trkpt lat="48.45313" lon="2.75231">
        <ele>78</ele>
        <time>2017-07-09T09:57:53Z</time>
      </trkpt>
      <trkpt lat="48.45329" lon="2.75256">
        <ele>77</ele>
        <time>2017-07-09T09:58:13Z</time>
      </trkpt>
      <trkpt lat="48.4535" lon="2.75267">
        <ele>76</ele>
        <time>2017-07-09T09:58:50Z</time>
      </trkpt>
      <trkpt lat="48.45368" lon="2.75245">
        <ele>75</ele>
        <time>2017-07-09T09:59:21Z</time>
      </trkpt>
      <trkpt lat="48.45386" lon="2.75223">
        <ele>75</ele>
        <time>2017-07-09T09:59:39Z</time>
      </trkpt>
      <trkpt lat="48.45429" lon="2.75197">
        <ele>75</ele>
        <time>2017-07-09T10:00:21Z</time>
      </trkpt>
      <trkpt lat="48.45475" lon="2.75181">
        <ele>75</ele>
        <time>2017-07-09T10:01:04Z</time>
      </trkpt>
      <trkpt lat="48.45521" lon="2.7518">
        <ele>76</ele>
        <time>2017-07-09T10:01:44Z</time>
      </trkpt>
      <trkpt lat="48.45566" lon="2.75177">
        <ele>77</ele>
        <time>2017-07-09T10:02:22Z</time>
      </trkpt>
      <trkpt lat="48.45612" lon="2.75172">
        <ele>76</ele>
        <time>2017-07-09T10:03:02Z</time>
      </trkpt>
      <trkpt lat="48.45636" lon="2.75173">
        <ele>76</ele>
        <time>2017-07-09T10:03:23Z</time>
      </trkpt>
      <trkpt lat="48.45683" lon="2.75176">
        <ele>76</ele>
        <time>2017-07-09T10:04:00Z</time>
      </trkpt>
      <trkpt lat="48.45706" lon="2.75168">
        <ele>75</ele>
        <time>2017-07-09T10:04:23Z</time>
      </trkpt>
      <trkpt lat="48.45751" lon="2.75173">
        <ele>74</ele>
        <time>2017-07-09T10:05:01Z</time>
      </trkpt>
      <trkpt lat="48.45796" lon="2.75185">
        <ele>73</ele>
        <time>2017-07-09T10:05:33Z</time>
      </trkpt>
      <trkpt lat="48.45842" lon="2.75199">
        <ele>72</ele>
        <time>2017-07-09T10:06:12Z</time>
      </trkpt>
      <trkpt lat="48.45886" lon="2.7522">
        <ele>71</ele>
        <time>2017-07-09T10:06:51Z</time>
      </trkpt>
      <trkpt lat="48.45929" lon="2.75249">
        <ele>71</ele>
        <time>2017-07-09T10:07:35Z</time>
      </trkpt>
      <trkpt lat="48.45952" lon="2.75262">
        <ele>71</ele>
        <time>2017-07-09T10:07:58Z</time>
      </trkpt>
      <trkpt lat="48.45975" lon="2.75265">
        <ele>71</ele>
        <time>2017-07-09T10:08:16Z</time>
      </trkpt>
      <trkpt lat="48.46014" lon="2.75304">
        <ele>71</ele>
        <time>2017-07-09T10:08:53Z</time>
      </trkpt>
      <trkpt lat="48.46056" lon="2.75333">
        <ele>71</ele>
        <time>2017-07-09T10:09:24Z</time>
      </trkpt>
      <trkpt lat="48.461" lon="2.75355">
        <ele>71</ele>
        <time>2017-07-09T10:10:00Z</time>
      </trkpt>
      <trkpt lat="48.46144" lon="2.75377">
        <ele>71</ele>
        <time>2017-07-09T10:10:37Z</time>
      </trkpt>
      <trkpt lat="48.46165" lon="2.7539">
        <ele>71</ele>
        <time>2017-07-09T10:11:01Z</time>
      </trkpt>
      <trkpt lat="48.46189" lon="2.75393">
        <ele>69</ele>
        <time>2017-07-09T10:12:37Z</time>
      </trkpt>
      <trkpt lat="48.46211" lon="2.754">
        <ele>69</ele>
        <time>2017-07-09T10:12:53Z</time>
      </trkpt>
      <trkpt lat="48.46258" lon="2.75398">
        <ele>69</ele>
        <time>2017-07-09T10:13:27Z</time>
      </trkpt>
      <trkpt lat="48.46281" lon="2.75401">
        <ele>70</ele>
        <time>2017-07-09T10:13:46Z</time>
      </trkpt>
      <trkpt lat="48.46327" lon="2.75413">
        <ele>69</ele>
        <time>2017-07-09T10:14:20Z</time>
      </trkpt>
      <trkpt lat="48.4635" lon="2.75423">
        <ele>69</ele>
        <time>2017-07-09T10:14:45Z</time>
      </trkpt>
      <trkpt lat="48.46373" lon="2.75424">
        <ele>69</ele>
        <time>2017-07-09T10:14:58Z</time>
      </trkpt>
      <trkpt lat="48.46406" lon="2.75472">
        <ele>68</ele>
        <time>2017-07-09T10:15:23Z</time>
      </trkpt>
      <trkpt lat="48.46421" lon="2.75539">
        <ele>67</ele>
        <time>2017-07-09T10:15:59Z</time>
      </trkpt>
      <trkpt lat="48.46439" lon="2.75603">
        <ele>67</ele>
        <time>2017-07-09T10:16:37Z</time>
      </trkpt>
      <trkpt lat="48.46466" lon="2.75698">
        <ele>66</ele>
        <time>2017-07-09T10:17:27Z</time>
      </trkpt>
      <trkpt lat="48.46483" lon="2.75763">
        <ele>66</ele>
        <time>2017-07-09T10:18:02Z</time>
      </trkpt>
      <trkpt lat="48.46505" lon="2.75823">
        <ele>65</ele>
        <time>2017-07-09T10:18:34Z</time>
      </trkpt>
      <trkpt lat="48.46524" lon="2.75887">
        <ele>65</ele>
        <time>2017-07-09T10:19:06Z</time>
      </trkpt>
      <trkpt lat="48.46541" lon="2.75953">
        <ele>65</ele>
        <time>2017-07-09T10:19:45Z</time>
      </trkpt>
      <trkpt lat="48.46555" lon="2.7598">
        <ele>64</ele>
        <time>2017-07-09T10:20:40Z</time>
      </trkpt>
      <trkpt lat="48.46546" lon="2.75984">
        <ele>64</ele>
        <time>2017-07-09T10:21:31Z</time>
      </trkpt>
      <trkpt lat="48.46562" lon="2.76012">
        <ele>63</ele>
        <time>2017-07-09T10:29:36Z</time>
      </trkpt>
      <trkpt lat="48.4657" lon="2.76045">
        <ele>63</ele>
        <time>2017-07-09T10:30:03Z</time>
      </trkpt>
      <trkpt lat="48.46572" lon="2.76081">
        <ele>62</ele>
        <time>2017-07-09T10:30:29Z</time>
      </trkpt>
      <trkpt lat="48.46592" lon="2.76096">
        <ele>62</ele>
        <time>2017-07-09T10:30:40Z</time>
      </trkpt>
      <trkpt lat="48.46593" lon="2.76164">
        <ele>62</ele>
        <time>2017-07-09T10:31:14Z</time>
      </trkpt>
      <trkpt lat="48.46595" lon="2.76235">
        <ele>61</ele>
        <time>2017-07-09T10:32:00Z</time>
      </trkpt>
      <trkpt lat="48.46596" lon="2.7627">
        <ele>61</ele>
        <time>2017-07-09T10:32:20Z</time>
      </trkpt>
      <trkpt lat="48.46596" lon="2.76307">
        <ele>60</ele>
        <time>2017-07-09T10:32:40Z</time>
      </trkpt>
      <trkpt lat="48.46602" lon="2.7634">
        <ele>60</ele>
        <time>2017-07-09T10:32:58Z</time>
      </trkpt>
      <trkpt lat="48.46596" lon="2.76411">
        <ele>58</ele>
        <time>2017-07-09T10:33:41Z</time>
      </trkpt>
      <trkpt lat="48.46596" lon="2.76446">
        <ele>57</ele>
        <time>2017-07-09T10:33:57Z</time>
      </trkpt>
      <trkpt lat="48.46587" lon="2.76478">
        <ele>57</ele>
        <time>2017-07-09T10:34:17Z</time>
      </trkpt>
      <trkpt lat="48.46594" lon="2.76512">
        <ele>56</ele>
        <time>2017-07-09T10:34:43Z</time>
      </trkpt>
      <trkpt lat="48.46584" lon="2.76542">
        <ele>55</ele>
        <time>2017-07-09T10:34:56Z</time>
      </trkpt>
      <trkpt lat="48.46586" lon="2.76578">
        <ele>55</ele>
        <time>2017-07-09T10:35:13Z</time>
      </trkpt>
      <trkpt lat="48.46594" lon="2.7661">
        <ele>54</ele>
        <time>2017-07-09T10:35:33Z</time>
      </trkpt>
      <trkpt lat="48.46582" lon="2.76639">
        <ele>53</ele>
        <time>2017-07-09T10:35:49Z</time>
      </trkpt>
      <trkpt lat="48.46581" lon="2.76674">
        <ele>52</ele>
        <time>2017-07-09T10:36:09Z</time>
      </trkpt>
      <trkpt lat="48.46582" lon="2.76742">
        <ele>51</ele>
        <time>2017-07-09T10:36:45Z</time>
      </trkpt>
      <trkpt lat="48.46584" lon="2.76813">
        <ele>50</ele>
        <time>2017-07-09T10:37:20Z</time>
      </trkpt>
      <trkpt lat="48.46579" lon="2.76847">
        <ele>49</ele>
        <time>2017-07-09T10:37:36Z</time>
      </trkpt>
      <trkpt lat="48.46584" lon="2.76884">
        <ele>49</ele>
        <time>2017-07-09T10:37:51Z</time>
      </trkpt>
      <trkpt lat="48.46587" lon="2.76918">
        <ele>48</ele>
        <time>2017-07-09T10:38:18Z</time>
      </trkpt>
      <trkpt lat="48.46583" lon="2.76991">
        <ele>47</ele>
        <time>2017-07-09T10:39:01Z</time>
      </trkpt>
      <trkpt lat="48.46591" lon="2.77024">
        <ele>47</ele>
        <time>2017-07-09T10:39:32Z</time>
      </trkpt>
      <trkpt lat="48.46607" lon="2.77051">
        <ele>46</ele>
        <time>2017-07-09T10:39:53Z</time>
      </trkpt>
      <trkpt lat="48.46626" lon="2.77068">
        <ele>46</ele>
        <time>2017-07-09T10:40:09Z</time>
      </trkpt>
      <trkpt lat="48.46672" lon="2.77064">
        <ele>46</ele>
        <time>2017-07-09T10:40:54Z</time>
      </trkpt>
      <trkpt lat="48.46717" lon="2.77057">
        <ele>46</ele>
        <time>2017-07-09T10:41:28Z</time>
      </trkpt>
      <trkpt lat="48.46764" lon="2.77051">
        <ele>46</ele>
        <time>2017-07-09T10:42:09Z</time>
      </trkpt>
      <trkpt lat="48.46787" lon="2.77048">
        <ele>46</ele>
        <time>2017-07-09T10:42:28Z</time>
      </trkpt>
      <trkpt lat="48.46811" lon="2.77051">
        <ele>46</ele>
        <time>2017-07-09T10:42:50Z</time>
      </trkpt>
      <trkpt lat="48.46849" lon="2.77031">
        <ele>46</ele>
        <time>2017-07-09T11:53:38Z</time>
      </trkpt>
      <trkpt lat="48.46894" lon="2.77016">
        <ele>46</ele>
        <time>2017-07-09T11:54:26Z</time>
      </trkpt>
      <trkpt lat="48.46939" lon="2.76999">
        <ele>46</ele>
        <time>2017-07-09T11:55:09Z</time>
      </trkpt>
      <trkpt lat="48.46962" lon="2.76991">
        <ele>46</ele>
        <time>2017-07-09T11:55:27Z</time>
      </trkpt>
      <trkpt lat="48.47003" lon="2.76963">
        <ele>47</ele>
        <time>2017-07-09T11:56:10Z</time>
      </trkpt>
      <trkpt lat="48.47025" lon="2.76963">
        <ele>47</ele>
        <time>2017-07-09T11:56:26Z</time>
      </trkpt>
      <trkpt lat="48.4707" lon="2.76941">
        <ele>47</ele>
        <time>2017-07-09T11:57:16Z</time>
      </trkpt>
      <trkpt lat="48.47111" lon="2.76915">
        <ele>46</ele>
        <time>2017-07-09T11:57:55Z</time>
      </trkpt>
      <trkpt lat="48.47157" lon="2.76898">
        <ele>47</ele>
        <time>2017-07-09T11:58:35Z</time>
      </trkpt>
      <trkpt lat="48.47201" lon="2.76869">
        <ele>46</ele>
        <time>2017-07-09T11:59:11Z</time>
      </trkpt>
      <trkpt lat="48.47244" lon="2.76847">
        <ele>46</ele>
        <time>2017-07-09T11:59:48Z</time>
      </trkpt>
      <trkpt lat="48.47288" lon="2.7682">
        <ele>46</ele>
        <time>2017-07-09T12:00:24Z</time>
      </trkpt>
      <trkpt lat="48.4731" lon="2.76811">
        <ele>45</ele>
        <time>2017-07-09T12:00:50Z</time>
      </trkpt>
      <trkpt lat="48.47331" lon="2.76795">
        <ele>45</ele>
        <time>2017-07-09T12:01:07Z</time>
      </trkpt>
      <trkpt lat="48.47376" lon="2.76776">
        <ele>45</ele>
        <time>2017-07-09T12:01:42Z</time>
      </trkpt>
      <trkpt lat="48.47422" lon="2.76757">
        <ele>45</ele>
        <time>2017-07-09T12:02:29Z</time>
      </trkpt>
      <trkpt lat="48.47441" lon="2.76739">
        <ele>45</ele>
        <time>2017-07-09T12:02:51Z</time>
      </trkpt>
      <trkpt lat="48.47464" lon="2.76728">
        <ele>45</ele>
        <time>2017-07-09T12:03:10Z</time>
      </trkpt>
      <trkpt lat="48.47503" lon="2.76694">
        <ele>45</ele>
        <time>2017-07-09T12:03:43Z</time>
      </trkpt>
      <trkpt lat="48.47544" lon="2.76659">
        <ele>45</ele>
        <time>2017-07-09T12:04:27Z</time>
      </trkpt>
      <trkpt lat="48.47568" lon="2.7665">
        <ele>45</ele>
        <time>2017-07-09T12:04:47Z</time>
      </trkpt>
      <trkpt lat="48.47588" lon="2.76634">
        <ele>45</ele>
        <time>2017-07-09T12:05:06Z</time>
      </trkpt>
      <trkpt lat="48.47605" lon="2.76609">
        <ele>45</ele>
        <time>2017-07-09T12:05:24Z</time>
      </trkpt>
      <trkpt lat="48.47627" lon="2.76599">
        <ele>45</ele>
        <time>2017-07-09T12:05:49Z</time>
      </trkpt>
      <trkpt lat="48.47686" lon="2.76547">
        <ele>45</ele>
        <time>2017-07-09T12:06:42Z</time>
      </trkpt>
      <trkpt lat="48.47729" lon="2.76524">
        <ele>45</ele>
        <time>2017-07-09T12:07:21Z</time>
      </trkpt>
      <trkpt lat="48.47768" lon="2.76482">
        <ele>46</ele>
        <time>2017-07-09T12:07:59Z</time>
      </trkpt>
      <trkpt lat="48.47807" lon="2.7644">
        <ele>46</ele>
        <time>2017-07-09T12:08:36Z</time>
      </trkpt>
      <trkpt lat="48.47828" lon="2.76429">
        <ele>46</ele>
        <time>2017-07-09T12:08:57Z</time>
      </trkpt>
      <trkpt lat="48.47868" lon="2.76391">
        <ele>46</ele>
        <time>2017-07-09T12:09:38Z</time>
      </trkpt>
      <trkpt lat="48.47888" lon="2.76375">
        <ele>46</ele>
        <time>2017-07-09T12:09:57Z</time>
      </trkpt>
      <trkpt lat="48.47923" lon="2.76328">
        <ele>46</ele>
        <time>2017-07-09T12:10:38Z</time>
      </trkpt>
      <trkpt lat="48.47944" lon="2.7631">
        <ele>46</ele>
        <time>2017-07-09T12:10:56Z</time>
      </trkpt>
      <trkpt lat="48.47979" lon="2.76263">
        <ele>46</ele>
        <time>2017-07-09T12:11:29Z</time>
      </trkpt>
      <trkpt lat="48.48016" lon="2.76218">
        <ele>46</ele>
        <time>2017-07-09T12:12:13Z</time>
      </trkpt>
      <trkpt lat="48.48053" lon="2.76175">
        <ele>47</ele>
        <time>2017-07-09T12:12:47Z</time>
      </trkpt>
      <trkpt lat="48.48073" lon="2.76159">
        <ele>47</ele>
        <time>2017-07-09T12:13:08Z</time>
      </trkpt>
      <trkpt lat="48.48088" lon="2.76133">
        <ele>47</ele>
        <time>2017-07-09T12:13:24Z</time>
      </trkpt>
      <trkpt lat="48.48107" lon="2.76107">
        <ele>48</ele>
        <time>2017-07-09T12:13:56Z</time>
      </trkpt>
      <trkpt lat="48.48139" lon="2.76053">
        <ele>48</ele>
        <time>2017-07-09T12:14:31Z</time>
      </trkpt>
      <trkpt lat="48.48145" lon="2.7602">
        <ele>48</ele>
        <time>2017-07-09T12:15:00Z</time>
      </trkpt>
      <trkpt lat="48.48125" lon="2.75959">
        <ele>48</ele>
        <time>2017-07-09T12:15:39Z</time>
      </trkpt>
      <trkpt lat="48.48115" lon="2.75929">
        <ele>48</ele>
        <time>2017-07-09T12:15:57Z</time>
      </trkpt>
      <trkpt lat="48.48092" lon="2.75867">
        <ele>48</ele>
        <time>2017-07-09T12:16:37Z</time>
      </trkpt>
      <trkpt lat="48.48082" lon="2.75833">
        <ele>49</ele>
        <time>2017-07-09T12:16:53Z</time>
      </trkpt>
      <trkpt lat="48.48054" lon="2.75778">
        <ele>49</ele>
        <time>2017-07-09T12:17:29Z</time>
      </trkpt>
      <trkpt lat="48.4804" lon="2.75751">
        <ele>50</ele>
        <time>2017-07-09T12:17:45Z</time>
      </trkpt>
      <trkpt lat="48.4803" lon="2.7572">
        <ele>50</ele>
        <time>2017-07-09T12:18:04Z</time>
      </trkpt>
      <trkpt lat="48.47999" lon="2.75667">
        <ele>51</ele>
        <time>2017-07-09T12:18:40Z</time>
      </trkpt>
      <trkpt lat="48.47983" lon="2.75598">
        <ele>51</ele>
        <time>2017-07-09T12:19:15Z</time>
      </trkpt>
      <trkpt lat="48.47971" lon="2.75568">
        <ele>52</ele>
        <time>2017-07-09T12:19:30Z</time>
      </trkpt>
      <trkpt lat="48.47964" lon="2.75535">
        <ele>52</ele>
        <time>2017-07-09T12:20:03Z</time>
      </trkpt>
      <trkpt lat="48.47953" lon="2.75504">
        <ele>53</ele>
        <time>2017-07-09T12:21:26Z</time>
      </trkpt>
      <trkpt lat="48.47934" lon="2.75483">
        <ele>54</ele>
        <time>2017-07-09T12:21:41Z</time>
      </trkpt>
      <trkpt lat="48.47913" lon="2.75421">
        <ele>54</ele>
        <time>2017-07-09T12:22:22Z</time>
      </trkpt>
      <trkpt lat="48.47899" lon="2.75393">
        <ele>54</ele>
        <time>2017-07-09T12:22:43Z</time>
      </trkpt>
      <trkpt lat="48.47891" lon="2.7536">
        <ele>54</ele>
        <time>2017-07-09T12:23:00Z</time>
      </trkpt>
      <trkpt lat="48.47876" lon="2.75335">
        <ele>54</ele>
        <time>2017-07-09T12:23:18Z</time>
      </trkpt>
      <trkpt lat="48.47868" lon="2.75303">
        <ele>55</ele>
        <time>2017-07-09T12:23:36Z</time>
      </trkpt>
      <trkpt lat="48.47855" lon="2.75273">
        <ele>55</ele>
        <time>2017-07-09T12:23:56Z</time>
      </trkpt>
      <trkpt lat="48.47838" lon="2.7525">
        <ele>56</ele>
        <time>2017-07-09T12:24:13Z</time>
      </trkpt>
      <trkpt lat="48.47825" lon="2.75221">
        <ele>56</ele>
        <time>2017-07-09T12:24:32Z</time>
      </trkpt>
      <trkpt lat="48.47811" lon="2.75153">
        <ele>56</ele>
        <time>2017-07-09T12:25:09Z</time>
      </trkpt>
      <trkpt lat="48.47785" lon="2.75093">
        <ele>57</ele>
        <time>2017-07-09T12:25:51Z</time>
      </trkpt>
      <trkpt lat="48.47768" lon="2.7507">
        <ele>57</ele>
        <time>2017-07-09T12:26:09Z</time>
      </trkpt>
      <trkpt lat="48.47749" lon="2.75007">
        <ele>58</ele>
        <time>2017-07-09T12:26:40Z</time>
      </trkpt>
      <trkpt lat="48.47722" lon="2.74946">
        <ele>59</ele>
        <time>2017-07-09T12:27:12Z</time>
      </trkpt>
      <trkpt lat="48.47718" lon="2.74912">
        <ele>59</ele>
        <time>2017-07-09T12:27:34Z</time>
      </trkpt>
      <trkpt lat="48.4773" lon="2.74883">
        <ele>60</ele>
        <time>2017-07-09T12:28:48Z</time>
      </trkpt>
      <trkpt lat="48.47753" lon="2.7482">
        <ele>59</ele>
        <time>2017-07-09T12:29:27Z</time>
      </trkpt>
      <trkpt lat="48.47759" lon="2.74786">
        <ele>59</ele>
        <time>2017-07-09T12:29:43Z</time>
      </trkpt>
      <trkpt lat="48.4778" lon="2.74724">
        <ele>58</ele>
        <time>2017-07-09T12:30:25Z</time>
      </trkpt>
      <trkpt lat="48.47801" lon="2.74655">
        <ele>58</ele>
        <time>2017-07-09T12:31:03Z</time>
      </trkpt>
      <trkpt lat="48.47816" lon="2.74628">
        <ele>58</ele>
        <time>2017-07-09T12:31:21Z</time>
      </trkpt>
      <trkpt lat="48.47822" lon="2.74594">
        <ele>58</ele>
        <time>2017-07-09T12:31:40Z</time>
      </trkpt>
      <trkpt lat="48.47842" lon="2.74532">
        <ele>57</ele>
        <time>2017-07-09T12:32:15Z</time>
      </trkpt>
      <trkpt lat="48.47861" lon="2.74468">
        <ele>57</ele>
        <time>2017-07-09T12:32:50Z</time>
      </trkpt>
      <trkpt lat="48.47869" lon="2.74436">
        <ele>57</ele>
        <time>2017-07-09T12:33:14Z</time>
      </trkpt>
      <trkpt lat="48.4788" lon="2.74406">
        <ele>58</ele>
        <time>2017-07-09T12:34:33Z</time>
      </trkpt>
      <trkpt lat="48.47892" lon="2.74413">
        <ele>58</ele>
        <time>2017-07-09T12:35:24Z</time>
      </trkpt>
      <trkpt lat="48.47929" lon="2.74455">
        <ele>57</ele>
        <time>2017-07-09T12:36:09Z</time>
      </trkpt>
      <trkpt lat="48.47945" lon="2.74479">
        <ele>57</ele>
        <time>2017-07-09T12:36:31Z</time>
      </trkpt>
      <trkpt lat="48.47984" lon="2.74516">
        <ele>57</ele>
        <time>2017-07-09T12:37:09Z</time>
      </trkpt>
      <trkpt lat="48.48014" lon="2.74567">
        <ele>56</ele>
        <time>2017-07-09T12:37:48Z</time>
      </trkpt>
      <trkpt lat="48.48051" lon="2.74609">
        <ele>56</ele>
        <time>2017-07-09T12:38:26Z</time>
      </trkpt>
      <trkpt lat="48.48084" lon="2.74659">
        <ele>55</ele>
        <time>2017-07-09T12:39:03Z</time>
      </trkpt>
      <trkpt lat="48.48122" lon="2.74697">
        <ele>55</ele>
        <time>2017-07-09T12:39:40Z</time>
      </trkpt>
      <trkpt lat="48.48133" lon="2.74728">
        <ele>55</ele>
        <time>2017-07-09T12:40:40Z</time>
      </trkpt>
      <trkpt lat="48.48155" lon="2.74738">
        <ele>54</ele>
        <time>2017-07-09T12:40:59Z</time>
      </trkpt>
      <trkpt lat="48.48165" lon="2.74769">
        <ele>54</ele>
        <time>2017-07-09T12:41:17Z</time>
      </trkpt>
      <trkpt lat="48.48199" lon="2.74816">
        <ele>54</ele>
        <time>2017-07-09T12:41:58Z</time>
      </trkpt>
      <trkpt lat="48.48219" lon="2.74833">
        <ele>53</ele>
        <time>2017-07-09T12:42:18Z</time>
      </trkpt>
      <trkpt lat="48.48249" lon="2.74885">
        <ele>53</ele>
        <time>2017-07-09T12:43:02Z</time>
      </trkpt>
      <trkpt lat="48.48285" lon="2.74929">
        <ele>52</ele>
        <time>2017-07-09T12:43:40Z</time>
      </trkpt>
      <trkpt lat="48.48304" lon="2.74948">
        <ele>52</ele>
        <time>2017-07-09T12:43:58Z</time>
      </trkpt>
      <trkpt lat="48.48317" lon="2.74978">
        <ele>52</ele>
        <time>2017-07-09T12:44:16Z</time>
      </trkpt>
      <trkpt lat="48.4835" lon="2.75024">
        <ele>51</ele>
        <time>2017-07-09T12:44:54Z</time>
      </trkpt>
      <trkpt lat="48.48372" lon="2.75037">
        <ele>51</ele>
        <time>2017-07-09T12:45:12Z</time>
      </trkpt>
      <trkpt lat="48.48407" lon="2.7508">
        <ele>50</ele>
        <time>2017-07-09T12:45:50Z</time>
      </trkpt>
      <trkpt lat="48.48425" lon="2.75104">
        <ele>50</ele>
        <time>2017-07-09T12:46:07Z</time>
      </trkpt>
      <trkpt lat="48.48478" lon="2.75151">
        <ele>50</ele>
        <time>2017-07-09T12:48:54Z</time>
      </trkpt>
      <trkpt lat="48.48522" lon="2.75172">
        <ele>52</ele>
        <time>2017-07-09T12:49:32Z</time>
      </trkpt>
      <trkpt lat="48.48542" lon="2.75189">
        <ele>52</ele>
        <time>2017-07-09T12:49:58Z</time>
      </trkpt>
      <trkpt lat="48.48532" lon="2.75134">
        <ele>44</ele>
        <time>2017-07-09T12:53:52Z</time>
      </trkpt>
      <trkpt lat="48.48546" lon="2.75068">
        <ele>44</ele>
        <time>2017-07-09T12:54:29Z</time>
      </trkpt>
      <trkpt lat="48.48565" lon="2.75004">
        <ele>44</ele>
        <time>2017-07-09T12:55:01Z</time>
      </trkpt>
      <trkpt lat="48.48568" lon="2.7497">
        <ele>44</ele>
        <time>2017-07-09T12:55:20Z</time>
      </trkpt>
      <trkpt lat="48.48584" lon="2.74904">
        <ele>44</ele>
        <time>2017-07-09T12:56:01Z</time>
      </trkpt>
      <trkpt lat="48.48587" lon="2.74869">
        <ele>44</ele>
        <time>2017-07-09T12:56:23Z</time>
      </trkpt>
      <trkpt lat="48.48604" lon="2.74804">
        <ele>44</ele>
        <time>2017-07-09T12:57:03Z</time>
      </trkpt>
      <trkpt lat="48.48604" lon="2.74734">
        <ele>44</ele>
        <time>2017-07-09T12:57:42Z</time>
      </trkpt>
      <trkpt lat="48.48614" lon="2.74704">
        <ele>44</ele>
        <time>2017-07-09T12:58:01Z</time>
      </trkpt>
      <trkpt lat="48.4862" lon="2.74635">
        <ele>44</ele>
        <time>2017-07-09T12:58:45Z</time>
      </trkpt>
      <trkpt lat="48.4863" lon="2.74567">
        <ele>45</ele>
        <time>2017-07-09T12:59:21Z</time>
      </trkpt>
      <trkpt lat="48.48638" lon="2.745">
        <ele>45</ele>
        <time>2017-07-09T13:00:02Z</time>
      </trkpt>
      <trkpt lat="48.4864" lon="2.7443">
        <ele>45</ele>
        <time>2017-07-09T13:00:48Z</time>
      </trkpt>
      <trkpt lat="48.48647" lon="2.74397">
        <ele>45</ele>
        <time>2017-07-09T13:01:06Z</time>
      </trkpt>
      <trkpt lat="48.48645" lon="2.74326">
        <ele>45</ele>
        <time>2017-07-09T13:01:48Z</time>
      </trkpt>
      <trkpt lat="48.48644" lon="2.7429">
        <ele>45</ele>
        <time>2017-07-09T13:02:07Z</time>
      </trkpt>
      <trkpt lat="48.48649" lon="2.74257">
        <ele>45</ele>
        <time>2017-07-09T13:02:25Z</time>
      </trkpt>
      <trkpt lat="48.48648" lon="2.74182">
        <ele>45</ele>
        <time>2017-07-09T13:03:15Z</time>
      </trkpt>
      <trkpt lat="48.48644" lon="2.74147">
        <ele>45</ele>
        <time>2017-07-09T13:03:31Z</time>
      </trkpt>
      <trkpt lat="48.48648" lon="2.74077">
        <ele>45</ele>
        <time>2017-07-09T13:04:10Z</time>
      </trkpt>
      <trkpt lat="48.48648" lon="2.74043">
        <ele>45</ele>
        <time>2017-07-09T13:04:34Z</time>
      </trkpt>
      <trkpt lat="48.4864" lon="2.7401">
        <ele>45</ele>
        <time>2017-07-09T13:04:52Z</time>
      </trkpt>
      <trkpt lat="48.48639" lon="2.73975">
        <ele>45</ele>
        <time>2017-07-09T13:05:14Z</time>
      </trkpt>
      <trkpt lat="48.48631" lon="2.73943">
        <ele>45</ele>
        <time>2017-07-09T13:05:34Z</time>
      </trkpt>
      <trkpt lat="48.48632" lon="2.73907">
        <ele>45</ele>
        <time>2017-07-09T13:05:54Z</time>
      </trkpt>
      <trkpt lat="48.48629" lon="2.73873">
        <ele>45</ele>
        <time>2017-07-09T13:06:26Z</time>
      </trkpt>
      <trkpt lat="48.4863" lon="2.73835">
        <ele>45</ele>
        <time>2017-07-09T13:07:22Z</time>
      </trkpt>
      <trkpt lat="48.4863" lon="2.73801">
        <ele>45</ele>
        <time>2017-07-09T13:07:46Z</time>
      </trkpt>
      <trkpt lat="48.48625" lon="2.73731">
        <ele>45</ele>
        <time>2017-07-09T13:08:24Z</time>
      </trkpt>
      <trkpt lat="48.48616" lon="2.73699">
        <ele>46</ele>
        <time>2017-07-09T13:08:45Z</time>
      </trkpt>
      <trkpt lat="48.48608" lon="2.73631">
        <ele>46</ele>
        <time>2017-07-09T13:09:26Z</time>
      </trkpt>
      <trkpt lat="48.48608" lon="2.73596">
        <ele>46</ele>
        <time>2017-07-09T13:09:45Z</time>
      </trkpt>
      <trkpt lat="48.48603" lon="2.73563">
        <ele>46</ele>
        <time>2017-07-09T13:10:04Z</time>
      </trkpt>
      <trkpt lat="48.48602" lon="2.73528">
        <ele>45</ele>
        <time>2017-07-09T13:10:23Z</time>
      </trkpt>
      <trkpt lat="48.48598" lon="2.73494">
        <ele>45</ele>
        <time>2017-07-09T13:10:53Z</time>
      </trkpt>
      <trkpt lat="48.48594" lon="2.73426">
        <ele>45</ele>
        <time>2017-07-09T13:11:32Z</time>
      </trkpt>
      <trkpt lat="48.48584" lon="2.73358">
        <ele>45</ele>
        <time>2017-07-09T13:12:14Z</time>
      </trkpt>
      <trkpt lat="48.48577" lon="2.73255">
        <ele>45</ele>
        <time>2017-07-09T13:13:03Z</time>
      </trkpt>
      <trkpt lat="48.48572" lon="2.73221">
        <ele>45</ele>
        <time>2017-07-09T13:13:19Z</time>
      </trkpt>
      <trkpt lat="48.48572" lon="2.73151">
        <ele>45</ele>
        <time>2017-07-09T13:13:57Z</time>
      </trkpt>
      <trkpt lat="48.48576" lon="2.73111">
        <ele>45</ele>
        <time>2017-07-09T13:14:19Z</time>
      </trkpt>
      <trkpt lat="48.48568" lon="2.73079">
        <ele>45</ele>
        <time>2017-07-09T13:14:38Z</time>
      </trkpt>
      <trkpt lat="48.4857" lon="2.73009">
        <ele>45</ele>
        <time>2017-07-09T13:15:14Z</time>
      </trkpt>
      <trkpt lat="48.48567" lon="2.72941">
        <ele>45</ele>
        <time>2017-07-09T13:15:56Z</time>
      </trkpt>
      <trkpt lat="48.48563" lon="2.72907">
        <ele>45</ele>
        <time>2017-07-09T13:16:14Z</time>
      </trkpt>
      <trkpt lat="48.48565" lon="2.72837">
        <ele>45</ele>
        <time>2017-07-09T13:16:51Z</time>
      </trkpt>
      <trkpt lat="48.48563" lon="2.72768">
        <ele>46</ele>
        <time>2017-07-09T13:17:28Z</time>
      </trkpt>
      <trkpt lat="48.48559" lon="2.72698">
        <ele>46</ele>
        <time>2017-07-09T13:18:08Z</time>
      </trkpt>
      <trkpt lat="48.48556" lon="2.72629">
        <ele>46</ele>
        <time>2017-07-09T13:18:46Z</time>
      </trkpt>
      <trkpt lat="48.48555" lon="2.72561">
        <ele>46</ele>
        <time>2017-07-09T13:19:25Z</time>
      </trkpt>
      <trkpt lat="48.48555" lon="2.7249">
        <ele>46</ele>
        <time>2017-07-09T13:20:05Z</time>
      </trkpt>
      <trkpt lat="48.48553" lon="2.72421">
        <ele>46</ele>
        <time>2017-07-09T13:20:42Z</time>
      </trkpt>
      <trkpt lat="48.48547" lon="2.72353">
        <ele>46</ele>
        <time>2017-07-09T13:21:24Z</time>
      </trkpt>
      <trkpt lat="48.48543" lon="2.72319">
        <ele>46</ele>
        <time>2017-07-09T13:21:40Z</time>
      </trkpt>
      <trkpt lat="48.48545" lon="2.72286">
        <ele>46</ele>
        <time>2017-07-09T13:21:58Z</time>
      </trkpt>
      <trkpt lat="48.48541" lon="2.72251">
        <ele>46</ele>
        <time>2017-07-09T13:22:18Z</time>
      </trkpt>
      <trkpt lat="48.48545" lon="2.72182">
        <ele>46</ele>
        <time>2017-07-09T13:23:00Z</time>
      </trkpt>
      <trkpt lat="48.48535" lon="2.72114">
        <ele>46</ele>
        <time>2017-07-09T13:23:39Z</time>
      </trkpt>
      <trkpt lat="48.4853" lon="2.72045">
        <ele>46</ele>
        <time>2017-07-09T13:24:20Z</time>
      </trkpt>
      <trkpt lat="48.48531" lon="2.72011">
        <ele>46</ele>
        <time>2017-07-09T13:24:38Z</time>
      </trkpt>
      <trkpt lat="48.48517" lon="2.71944">
        <ele>46</ele>
        <time>2017-07-09T13:25:16Z</time>
      </trkpt>
      <trkpt lat="48.48513" lon="2.71876">
        <ele>46</ele>
        <time>2017-07-09T13:25:58Z</time>
      </trkpt>
      <trkpt lat="48.48499" lon="2.7181">
        <ele>46</ele>
        <time>2017-07-09T13:26:32Z</time>
      </trkpt>
      <trkpt lat="48.48495" lon="2.71776">
        <ele>46</ele>
        <time>2017-07-09T13:26:47Z</time>
      </trkpt>
      <trkpt lat="48.48478" lon="2.71712">
        <ele>46</ele>
        <time>2017-07-09T13:27:23Z</time>
      </trkpt>
      <trkpt lat="48.48461" lon="2.71687">
        <ele>46</ele>
        <time>2017-07-09T13:27:45Z</time>
      </trkpt>
      <trkpt lat="48.48435" lon="2.71584">
        <ele>48</ele>
        <time>2017-07-09T13:41:59Z</time>
      </trkpt>
      <trkpt lat="48.48432" lon="2.7155">
        <ele>48</ele>
        <time>2017-07-09T13:42:34Z</time>
      </trkpt>
      <trkpt lat="48.48412" lon="2.71489">
        <ele>48</ele>
        <time>2017-07-09T13:43:12Z</time>
      </trkpt>
      <trkpt lat="48.48393" lon="2.71425">
        <ele>48</ele>
        <time>2017-07-09T13:43:51Z</time>
      </trkpt>
      <trkpt lat="48.48373" lon="2.71363">
        <ele>48</ele>
        <time>2017-07-09T13:44:35Z</time>
      </trkpt>
      <trkpt lat="48.48352" lon="2.71299">
        <ele>49</ele>
        <time>2017-07-09T13:45:15Z</time>
      </trkpt>
      <trkpt lat="48.48335" lon="2.71235">
        <ele>49</ele>
        <time>2017-07-09T13:45:58Z</time>
      </trkpt>
      <trkpt lat="48.48322" lon="2.71206">
        <ele>49</ele>
        <time>2017-07-09T13:46:18Z</time>
      </trkpt>
      <trkpt lat="48.48315" lon="2.71173">
        <ele>49</ele>
        <time>2017-07-09T13:46:35Z</time>
      </trkpt>
      <trkpt lat="48.48303" lon="2.71141">
        <ele>49</ele>
        <time>2017-07-09T13:47:08Z</time>
      </trkpt>
      <trkpt lat="48.48284" lon="2.71079">
        <ele>49</ele>
        <time>2017-07-09T13:47:47Z</time>
      </trkpt>
      <trkpt lat="48.4826" lon="2.71018">
        <ele>49</ele>
        <time>2017-07-09T13:48:25Z</time>
      </trkpt>
      <trkpt lat="48.48248" lon="2.70989">
        <ele>49</ele>
        <time>2017-07-09T13:48:43Z</time>
      </trkpt>
      <trkpt lat="48.48228" lon="2.70925">
        <ele>47</ele>
        <time>2017-07-09T13:49:24Z</time>
      </trkpt>
      <trkpt lat="48.48208" lon="2.70863">
        <ele>46</ele>
        <time>2017-07-09T13:50:01Z</time>
      </trkpt>
      <trkpt lat="48.48194" lon="2.70797">
        <ele>46</ele>
        <time>2017-07-09T13:50:40Z</time>
      </trkpt>
      <trkpt lat="48.48182" lon="2.70731">
        <ele>45</ele>
        <time>2017-07-09T13:51:20Z</time>
      </trkpt>
      <trkpt lat="48.48171" lon="2.70701">
        <ele>45</ele>
        <time>2017-07-09T13:51:39Z</time>
      </trkpt>
      <trkpt lat="48.48167" lon="2.70667">
        <ele>44</ele>
        <time>2017-07-09T13:51:57Z</time>
      </trkpt>
      <trkpt lat="48.48157" lon="2.70635">
        <ele>44</ele>
        <time>2017-07-09T13:52:18Z</time>
      </trkpt>
      <trkpt lat="48.48155" lon="2.70638">
        <ele>48</ele>
        <time>2017-07-09T13:54:40Z</time>
      </trkpt>
      <trkpt lat="48.48175" lon="2.70619">
        <ele>48</ele>
        <time>2017-07-09T13:55:04Z</time>
      </trkpt>
      <trkpt lat="48.48219" lon="2.70597">
        <ele>48</ele>
        <time>2017-07-09T13:55:43Z</time>
      </trkpt>
      <trkpt lat="48.48262" lon="2.70573">
        <ele>49</ele>
        <time>2017-07-09T13:56:19Z</time>
      </trkpt>
      <trkpt lat="48.48305" lon="2.70549">
        <ele>49</ele>
        <time>2017-07-09T13:56:57Z</time>
      </trkpt>
      <trkpt lat="48.48328" lon="2.70538">
        <ele>50</ele>
        <time>2017-07-09T13:57:16Z</time>
      </trkpt>
      <trkpt lat="48.48343" lon="2.70564">
        <ele>46</ele>
        <time>2017-07-09T13:58:17Z</time>
      </trkpt>
      <trkpt lat="48.48358" lon="2.70538">
        <ele>45</ele>
        <time>2017-07-09T13:58:51Z</time>
      </trkpt>
      <trkpt lat="48.48364" lon="2.70505">
        <ele>45</ele>
        <time>2017-07-09T13:59:18Z</time>
      </trkpt>
      <trkpt lat="48.48359" lon="2.7047">
        <ele>45</ele>
        <time>2017-07-09T13:59:40Z</time>
      </trkpt>
      <trkpt lat="48.48336" lon="2.70471">
        <ele>45</ele>
        <time>2017-07-09T14:00:17Z</time>
      </trkpt>
      <trkpt lat="48.48313" lon="2.70479">
        <ele>45</ele>
        <time>2017-07-09T14:00:36Z</time>
      </trkpt>
      <trkpt lat="48.48291" lon="2.70467">
        <ele>45</ele>
        <time>2017-07-09T14:00:56Z</time>
      </trkpt>
      <trkpt lat="48.48277" lon="2.7044">
        <ele>44</ele>
        <time>2017-07-09T14:02:04Z</time>
      </trkpt>
      <trkpt lat="48.48263" lon="2.70373">
        <ele>44</ele>
        <time>2017-07-09T14:02:48Z</time>
      </trkpt>
      <trkpt lat="48.48258" lon="2.7034">
        <ele>44</ele>
        <time>2017-07-09T14:03:06Z</time>
      </trkpt>
      <trkpt lat="48.48235" lon="2.7028">
        <ele>43</ele>
        <time>2017-07-09T14:03:44Z</time>
      </trkpt>
      <trkpt lat="48.48228" lon="2.70247">
        <ele>43</ele>
        <time>2017-07-09T14:04:09Z</time>
      </trkpt>
      <trkpt lat="48.48229" lon="2.70212">
        <ele>43</ele>
        <time>2017-07-09T14:04:32Z</time>
      </trkpt>
      <trkpt lat="48.48224" lon="2.70178">
        <ele>43</ele>
        <time>2017-07-09T14:04:53Z</time>
      </trkpt>
      <trkpt lat="48.48209" lon="2.70112">
        <ele>43</ele>
        <time>2017-07-09T14:05:33Z</time>
      </trkpt>
      <trkpt lat="48.48205" lon="2.70079">
        <ele>43</ele>
        <time>2017-07-09T14:05:55Z</time>
      </trkpt>
      <trkpt lat="48.48204" lon="2.70011">
        <ele>43</ele>
        <time>2017-07-09T14:06:40Z</time>
      </trkpt>
      <trkpt lat="48.48202" lon="2.69975">
        <ele>43</ele>
        <time>2017-07-09T14:07:13Z</time>
      </trkpt>
      <trkpt lat="48.48192" lon="2.69907">
        <ele>43</ele>
        <time>2017-07-09T14:07:46Z</time>
      </trkpt>
      <trkpt lat="48.48189" lon="2.6984">
        <ele>43</ele>
        <time>2017-07-09T14:08:29Z</time>
      </trkpt>
      <trkpt lat="48.48187" lon="2.69771">
        <ele>43</ele>
        <time>2017-07-09T14:09:10Z</time>
      </trkpt>
      <trkpt lat="48.48184" lon="2.69701">
        <ele>43</ele>
        <time>2017-07-09T14:09:47Z</time>
      </trkpt>
      <trkpt lat="48.48179" lon="2.69666">
        <ele>43</ele>
        <time>2017-07-09T14:10:04Z</time>
      </trkpt>
      <trkpt lat="48.4818" lon="2.69631">
        <ele>43</ele>
        <time>2017-07-09T14:10:21Z</time>
      </trkpt>
      <trkpt lat="48.48187" lon="2.69599">
        <ele>43</ele>
        <time>2017-07-09T14:10:41Z</time>
      </trkpt>
      <trkpt lat="48.48178" lon="2.69568">
        <ele>43</ele>
        <time>2017-07-09T14:11:10Z</time>
      </trkpt>
      <trkpt lat="48.48161" lon="2.69543">
        <ele>44</ele>
        <time>2017-07-09T14:12:04Z</time>
      </trkpt>
      <trkpt lat="48.48117" lon="2.69526">
        <ele>45</ele>
        <time>2017-07-09T14:12:44Z</time>
      </trkpt>
      <trkpt lat="48.48072" lon="2.6951">
        <ele>44</ele>
        <time>2017-07-09T14:13:20Z</time>
      </trkpt>
      <trkpt lat="48.48049" lon="2.69512">
        <ele>44</ele>
        <time>2017-07-09T14:13:51Z</time>
      </trkpt>
      <trkpt lat="48.48003" lon="2.69494">
        <ele>44</ele>
        <time>2017-07-09T14:14:34Z</time>
      </trkpt>
      <trkpt lat="48.47982" lon="2.69482">
        <ele>44</ele>
        <time>2017-07-09T14:14:51Z</time>
      </trkpt>
      <trkpt lat="48.47925" lon="2.69468">
        <ele>46</ele>
        <time>2017-07-09T14:16:18Z</time>
      </trkpt>
      <trkpt lat="48.47879" lon="2.69453">
        <ele>47</ele>
        <time>2017-07-09T14:16:55Z</time>
      </trkpt>
      <trkpt lat="48.47834" lon="2.69438">
        <ele>48</ele>
        <time>2017-07-09T14:17:35Z</time>
      </trkpt>
      <trkpt lat="48.47789" lon="2.69427">
        <ele>51</ele>
        <time>2017-07-09T14:18:14Z</time>
      </trkpt>
      <trkpt lat="48.47743" lon="2.69414">
        <ele>53</ele>
        <time>2017-07-09T14:18:52Z</time>
      </trkpt>
      <trkpt lat="48.47699" lon="2.69398">
        <ele>55</ele>
        <time>2017-07-09T14:19:32Z</time>
      </trkpt>
      <trkpt lat="48.47654" lon="2.6938">
        <ele>57</ele>
        <time>2017-07-09T14:20:16Z</time>
      </trkpt>
      <trkpt lat="48.47608" lon="2.69367">
        <ele>60</ele>
        <time>2017-07-09T14:21:06Z</time>
      </trkpt>
      <trkpt lat="48.47562" lon="2.69355">
        <ele>62</ele>
        <time>2017-07-09T14:21:45Z</time>
      </trkpt>
      <trkpt lat="48.47514" lon="2.69342">
        <ele>64</ele>
        <time>2017-07-09T14:22:17Z</time>
      </trkpt>
      <trkpt lat="48.47492" lon="2.69337">
        <ele>65</ele>
        <time>2017-07-09T14:22:47Z</time>
      </trkpt>
      <trkpt lat="48.47481" lon="2.69307">
        <ele>66</ele>
        <time>2017-07-09T14:23:41Z</time>
      </trkpt>
      <trkpt lat="48.47489" lon="2.69275">
        <ele>67</ele>
        <time>2017-07-09T14:24:02Z</time>
      </trkpt>
      <trkpt lat="48.47517" lon="2.6922">
        <ele>70</ele>
        <time>2017-07-09T14:24:43Z</time>
      </trkpt>
      <trkpt lat="48.47533" lon="2.69196">
        <ele>73</ele>
        <time>2017-07-09T14:25:13Z</time>
      </trkpt>
    </trkseg>
  </trk>
</gpx>